createdAt,value
2022-11-30T00:01:51.566Z,35.77
2022-11-30T00:04:38.771Z,32.50
2022-11-30T00:07:26.448Z,32.90
2022-11-30T00:10:15.893Z,34.43
2022-11-30T00:13:03.148Z,30.43
2022-11-30T00:15:50.122Z,32.20
2022-11-30T00:18:37.758Z,31.77
2022-11-30T00:21:24.681Z,29.97
2022-11-30T00:24:11.702Z,32.87
2022-11-30T00:26:58.644Z,29.33
2022-11-30T00:29:45.686Z,31.67
2022-11-30T00:32:32.996Z,30.97
2022-11-30T00:35:20.003Z,32.07
2022-11-30T00:38:06.976Z,30.93
2022-11-30T00:40:54.249Z,31.13
2022-11-30T00:43:41.717Z,31.93
2022-11-30T00:46:28.941Z,31.37
2022-11-30T00:49:16.013Z,31.47
2022-11-30T00:52:03.152Z,31.50
2022-11-30T00:54:50.132Z,32.03
2022-11-30T00:57:37.148Z,30.77
2022-11-30T01:00:24.141Z,30.70
2022-11-30T01:03:12.178Z,29.90
2022-11-30T01:06:06.989Z,29.00
2022-11-30T01:08:54.433Z,30.93
2022-11-30T01:11:41.478Z,32.33
2022-11-30T01:14:28.534Z,31.30
2022-11-30T01:17:15.555Z,30.03
2022-11-30T01:20:03.066Z,30.90
2022-11-30T01:22:50.139Z,28.67
2022-11-30T01:25:37.254Z,30.47
2022-11-30T01:28:24.173Z,30.90
2022-11-30T01:31:14.595Z,30.60
2022-11-30T01:34:01.680Z,30.47
2022-11-30T01:36:48.784Z,29.07
2022-11-30T01:39:35.833Z,28.83
2022-11-30T01:42:22.912Z,29.90
2022-11-30T01:45:12.891Z,26.97
2022-11-30T01:47:59.942Z,28.67
2022-11-30T01:50:46.968Z,29.03
2022-11-30T01:53:33.963Z,30.13
2022-11-30T01:56:21.017Z,29.07
2022-11-30T01:59:08.201Z,26.07
2022-11-30T02:01:55.872Z,25.27
2022-11-30T02:04:43.261Z,26.53
2022-11-30T02:07:30.257Z,26.33
2022-11-30T02:10:23.382Z,26.43
2022-11-30T02:13:34.465Z,27.30
2022-11-30T02:16:42.042Z,26.47
2022-11-30T02:20:20.027Z,27.00
2022-11-30T02:23:54.955Z,26.37
2022-11-30T02:27:15.520Z,28.30
2022-11-30T02:30:09.991Z,30.27
2022-11-30T02:33:03.328Z,30.00
2022-11-30T02:35:55.347Z,27.77
2022-11-30T02:38:42.755Z,29.23
2022-11-30T02:41:39.946Z,29.03
2022-11-30T02:44:28.409Z,31.20
2022-11-30T02:47:23.994Z,30.57
2022-11-30T02:50:16.979Z,27.40
2022-11-30T02:53:04.243Z,28.30
2022-11-30T02:55:51.389Z,32.50
2022-11-30T02:58:39.379Z,32.43
2022-11-30T03:01:26.525Z,31.20
2022-11-30T03:04:13.506Z,30.77
2022-11-30T03:07:00.724Z,30.67
2022-11-30T03:09:47.697Z,30.87
2022-11-30T03:12:34.768Z,30.67
2022-11-30T03:15:21.787Z,29.43
2022-11-30T03:18:08.777Z,28.87
2022-11-30T03:20:55.796Z,27.83
2022-11-30T03:23:42.881Z,28.63
2022-11-30T03:26:29.906Z,30.17
2022-11-30T03:29:17.158Z,26.47
2022-11-30T03:32:04.346Z,28.77
2022-11-30T03:34:51.376Z,26.77
2022-11-30T03:37:38.424Z,25.67
2022-11-30T03:40:25.340Z,23.20
2022-11-30T03:43:12.372Z,23.17
2022-11-30T03:45:59.721Z,23.40
2022-11-30T03:48:47.517Z,22.23
2022-11-30T03:51:34.780Z,22.10
2022-11-30T03:54:21.951Z,20.33
2022-11-30T03:57:14.580Z,22.03
2022-11-30T04:00:01.720Z,19.47
2022-11-30T04:02:48.770Z,20.73
2022-11-30T04:05:35.847Z,20.73
2022-11-30T04:08:23.216Z,21.53
2022-11-30T04:11:11.514Z,22.40
2022-11-30T04:13:58.684Z,21.27
2022-11-30T04:16:45.733Z,21.33
2022-11-30T04:19:32.822Z,21.73
2022-11-30T04:22:19.978Z,22.83
2022-11-30T04:25:07.694Z,23.97
2022-11-30T04:27:54.673Z,23.50
2022-11-30T04:30:42.017Z,23.70
2022-11-30T04:33:29.749Z,23.33
2022-11-30T04:36:19.937Z,24.27
2022-11-30T04:39:06.991Z,22.77
2022-11-30T04:41:54.020Z,24.37
2022-11-30T04:44:41.031Z,23.17
2022-11-30T04:47:28.032Z,23.60
2022-11-30T04:50:15.113Z,23.83
2022-11-30T04:53:02.264Z,22.97
2022-11-30T04:55:49.279Z,24.03
2022-11-30T04:58:37.007Z,23.43
2022-11-30T05:01:24.078Z,27.10
2022-11-30T05:04:11.147Z,25.33
2022-11-30T05:06:58.151Z,27.27
2022-11-30T05:09:45.146Z,25.57
2022-11-30T05:12:32.398Z,26.43
2022-11-30T05:15:20.067Z,25.80
2022-11-30T05:18:07.017Z,25.50
2022-11-30T05:20:54.129Z,24.57
2022-11-30T05:23:41.131Z,25.10
2022-11-30T05:26:28.136Z,25.67
2022-11-30T05:29:15.200Z,25.70
2022-11-30T05:32:02.453Z,25.67
2022-11-30T05:34:51.793Z,25.03
2022-11-30T05:37:39.218Z,24.53
2022-11-30T05:40:28.144Z,25.07
2022-11-30T05:43:15.126Z,24.23
2022-11-30T05:46:04.278Z,24.53
2022-11-30T05:48:51.321Z,22.87
2022-11-30T05:51:40.223Z,21.80
2022-11-30T05:54:27.274Z,22.73
2022-11-30T05:57:14.266Z,22.63
2022-11-30T06:00:01.217Z,22.87
2022-11-30T06:02:48.501Z,21.97
2022-11-30T06:05:36.597Z,22.73
2022-11-30T06:08:24.436Z,21.97
2022-11-30T06:11:11.669Z,23.10
2022-11-30T06:13:58.604Z,22.50
2022-11-30T06:16:45.650Z,21.93
2022-11-30T06:19:32.696Z,21.87
2022-11-30T06:22:19.648Z,21.97
2022-11-30T06:25:06.891Z,22.03
2022-11-30T06:27:54.256Z,21.90
2022-11-30T06:30:41.162Z,21.37
2022-11-30T06:33:28.628Z,22.70
2022-11-30T06:36:21.046Z,21.17
2022-11-30T06:39:09.331Z,20.70
2022-11-30T06:41:56.220Z,20.33
2022-11-30T06:44:43.320Z,19.97
2022-11-30T06:47:30.347Z,21.67
2022-11-30T06:50:17.573Z,20.20
2022-11-30T06:53:05.136Z,19.50
2022-11-30T06:55:52.626Z,18.70
2022-11-30T06:58:39.991Z,19.00
2022-11-30T07:01:27.080Z,20.80
2022-11-30T07:04:14.192Z,19.87
2022-11-30T07:07:01.175Z,20.00
2022-11-30T07:09:48.160Z,20.37
2022-11-30T07:12:35.781Z,21.13
2022-11-30T07:15:22.803Z,20.20
2022-11-30T07:18:10.407Z,19.53
2022-11-30T07:21:02.572Z,22.13
2022-11-30T07:24:08.786Z,22.03
2022-11-30T07:26:55.964Z,21.60
2022-11-30T07:29:42.891Z,22.77
2022-11-30T07:32:29.823Z,23.63
2022-11-30T07:35:16.996Z,23.17
2022-11-30T07:38:09.442Z,24.13
2022-11-30T07:40:58.075Z,22.73
2022-11-30T07:43:45.167Z,22.53
2022-11-30T07:46:33.644Z,23.87
2022-11-30T07:49:20.664Z,23.57
2022-11-30T07:52:08.360Z,23.83
2022-11-30T07:54:55.349Z,24.43
2022-11-30T07:57:42.314Z,24.73
2022-11-30T08:00:29.892Z,27.33
2022-11-30T08:03:16.906Z,26.43
2022-11-30T08:06:10.266Z,26.47
2022-11-30T08:09:00.268Z,28.10
2022-11-30T08:11:48.885Z,27.90
2022-11-30T08:14:56.600Z,26.83
2022-11-30T08:17:44.231Z,26.80
2022-11-30T08:20:31.288Z,28.63
2022-11-30T08:23:18.407Z,29.33
2022-11-30T08:26:07.665Z,27.87
2022-11-30T08:28:55.220Z,29.50
2022-11-30T08:31:45.596Z,29.37
2022-11-30T08:34:35.471Z,30.17
2022-11-30T08:37:24.668Z,30.87
2022-11-30T08:40:14.985Z,33.50
2022-11-30T08:43:02.352Z,32.73
2022-11-30T08:45:54.251Z,34.37
2022-11-30T08:48:46.432Z,30.93
2022-11-30T08:52:00.818Z,33.13
2022-11-30T08:54:51.002Z,30.03
2022-11-30T08:57:39.276Z,29.67
2022-11-30T09:00:29.663Z,27.87
2022-11-30T09:03:17.467Z,29.07
2022-11-30T09:06:19.499Z,30.30
2022-11-30T09:09:07.157Z,29.30
2022-11-30T09:11:54.659Z,28.27
2022-11-30T09:14:42.299Z,30.13
2022-11-30T09:17:29.520Z,28.90
2022-11-30T09:20:18.726Z,30.33
2022-11-30T09:23:06.363Z,28.33
2022-11-30T09:26:02.597Z,30.43
2022-11-30T09:28:49.728Z,30.37
2022-11-30T09:31:36.689Z,29.77
2022-11-30T09:34:23.697Z,31.10
2022-11-30T09:37:17.384Z,29.87
2022-11-30T09:40:06.371Z,28.97
2022-11-30T09:43:39.699Z,28.37
2022-11-30T09:46:37.645Z,31.17
2022-11-30T09:49:46.334Z,29.83
2022-11-30T09:52:39.268Z,30.93
2022-11-30T09:55:43.140Z,30.17
2022-11-30T09:58:44.905Z,27.90
2022-11-30T10:01:33.122Z,28.13
2022-11-30T10:04:24.140Z,28.50
2022-11-30T10:07:17.047Z,28.73
2022-11-30T10:10:33.050Z,28.17
2022-11-30T10:13:39.340Z,28.80
2022-11-30T10:16:29.292Z,27.43
2022-11-30T10:19:35.022Z,29.13
2022-11-30T10:22:28.046Z,29.37
2022-11-30T10:25:29.394Z,30.03
2022-11-30T10:28:45.475Z,29.80
2022-11-30T10:31:37.404Z,29.30
2022-11-30T10:34:45.976Z,30.27
2022-11-30T10:37:37.173Z,31.70
2022-11-30T10:40:30.949Z,30.30
2022-11-30T10:43:32.962Z,30.60
2022-11-30T10:46:43.999Z,30.60
2022-11-30T10:49:33.051Z,29.33
2022-11-30T10:52:30.874Z,29.20
2022-11-30T10:55:24.365Z,30.67
2022-11-30T10:58:38.980Z,30.03
2022-11-30T11:01:37.904Z,30.30
2022-11-30T11:04:27.624Z,30.20
2022-11-30T11:07:14.898Z,31.17
2022-11-30T11:10:02.440Z,28.60
2022-11-30T11:12:52.697Z,30.30
2022-11-30T11:15:39.663Z,29.23
2022-11-30T11:18:29.184Z,29.07
2022-11-30T11:21:19.445Z,30.20
2022-11-30T11:24:10.849Z,27.50
2022-11-30T11:26:57.861Z,29.00
2022-11-30T11:29:45.186Z,30.70
2022-11-30T11:32:32.458Z,29.77
2022-11-30T11:35:39.740Z,30.37
2022-11-30T11:38:29.580Z,28.33
2022-11-30T11:41:28.131Z,31.40
2022-11-30T11:44:27.182Z,31.50
2022-11-30T11:47:32.759Z,32.40
2022-11-30T11:51:05.035Z,30.90
2022-11-30T11:53:47.345Z,33.20
2022-11-30T11:56:38.483Z,31.60
2022-11-30T11:59:44.181Z,32.63
2022-11-30T12:02:53.003Z,31.57
2022-11-30T12:05:49.519Z,33.03
2022-11-30T12:08:47.683Z,32.97
2022-11-30T12:11:45.556Z,34.27
2022-11-30T12:14:34.311Z,31.90
2022-11-30T12:17:39.513Z,32.53
2022-11-30T12:20:49.648Z,33.33
2022-11-30T12:23:49.438Z,33.87
2022-11-30T12:27:08.758Z,34.87
2022-11-30T12:30:20.499Z,33.20
2022-11-30T12:33:44.934Z,32.80
2022-11-30T12:36:57.470Z,34.70
2022-11-30T12:39:56.553Z,35.57
2022-11-30T12:42:43.549Z,36.27
2022-11-30T12:45:44.761Z,35.07
2022-11-30T12:48:38.701Z,35.57
2022-11-30T12:52:08.012Z,37.00
2022-11-30T12:55:19.184Z,35.83
2022-11-30T12:58:19.624Z,38.00
2022-11-30T13:01:15.772Z,37.43
2022-11-30T13:04:18.101Z,36.90
2022-11-30T13:07:22.684Z,37.30
2022-11-30T13:10:12.919Z,35.43
2022-11-30T13:13:01.448Z,36.03
2022-11-30T13:15:49.956Z,37.20
2022-11-30T13:18:37.569Z,37.23
2022-11-30T13:21:29.457Z,33.73
2022-11-30T13:24:26.526Z,35.63
2022-11-30T13:27:26.889Z,34.50
2022-11-30T13:30:13.771Z,35.60
2022-11-30T13:33:38.300Z,35.57
2022-11-30T13:36:34.804Z,34.83
2022-11-30T13:39:27.017Z,35.83
2022-11-30T13:42:34.300Z,35.10
2022-11-30T13:45:35.203Z,35.90
2022-11-30T13:48:39.474Z,37.67
2022-11-30T13:51:38.345Z,39.17
2022-11-30T13:54:58.291Z,37.67
2022-11-30T13:57:45.276Z,37.83
2022-11-30T14:00:32.201Z,38.80
2022-11-30T14:06:41.628Z,34.77
2022-11-30T14:09:40.674Z,35.90
2022-11-30T14:12:44.050Z,37.13
2022-11-30T14:15:40.891Z,35.50
2022-11-30T14:18:38.421Z,37.00
2022-11-30T14:21:36.812Z,37.57
2022-11-30T14:24:24.072Z,36.43
2022-11-30T14:27:18.752Z,37.87
2022-11-30T14:30:06.709Z,34.80
2022-11-30T14:33:01.875Z,35.93
2022-11-30T14:35:55.505Z,36.37
2022-11-30T14:38:43.577Z,35.23
2022-11-30T14:41:31.352Z,37.90
2022-11-30T14:44:18.278Z,36.20
2022-11-30T14:47:26.488Z,38.40
2022-11-30T14:50:23.044Z,35.50
2022-11-30T14:53:42.269Z,36.47
2022-11-30T14:56:33.171Z,37.20
2022-11-30T14:59:45.067Z,37.70
2022-11-30T15:02:39.113Z,35.40
2022-11-30T15:05:29.304Z,35.10
2022-11-30T15:08:17.344Z,35.10
2022-11-30T15:11:06.879Z,33.83
2022-11-30T15:14:07.186Z,35.40
2022-11-30T15:16:57.157Z,37.70
2022-11-30T15:19:49.070Z,36.87
2022-11-30T15:22:36.519Z,35.90
2022-11-30T15:25:28.517Z,38.73
2022-11-30T15:28:20.919Z,39.70
2022-11-30T15:31:13.446Z,37.43
2022-11-30T15:34:00.888Z,40.97
2022-11-30T15:36:48.334Z,42.20
2022-11-30T15:39:35.522Z,39.47
2022-11-30T15:42:39.569Z,41.47
2022-11-30T15:45:36.263Z,40.33
2022-11-30T15:48:37.939Z,41.80
2022-11-30T15:51:26.378Z,43.67
2022-11-30T15:57:17.213Z,45.20
2022-11-30T16:00:16.736Z,42.10
2022-11-30T16:03:12.161Z,42.00
2022-11-30T16:06:00.860Z,40.63
2022-11-30T16:08:48.652Z,45.60
2022-11-30T16:11:35.696Z,42.70
2022-11-30T16:14:23.062Z,44.60
2022-11-30T16:17:11.134Z,41.00
2022-11-30T16:19:58.179Z,40.67
2022-11-30T16:22:47.690Z,42.30
2022-11-30T16:25:34.696Z,40.83
2022-11-30T16:28:22.661Z,39.73
2022-11-30T16:31:17.359Z,40.20
2022-11-30T16:34:04.584Z,39.10
2022-11-30T16:36:51.574Z,40.63
2022-11-30T16:39:38.590Z,39.63
2022-11-30T16:42:25.597Z,44.60
2022-11-30T16:45:24.107Z,41.87
2022-11-30T16:48:11.140Z,40.87
2022-11-30T16:50:58.438Z,41.50
2022-11-30T16:53:46.010Z,38.13
2022-11-30T16:56:34.394Z,40.20
2022-11-30T16:59:21.381Z,41.93
2022-11-30T17:02:19.311Z,43.20
2022-11-30T17:05:06.919Z,39.47
2022-11-30T17:07:54.671Z,43.47
2022-11-30T17:10:42.403Z,47.20
2022-11-30T17:13:29.433Z,40.90
2022-11-30T17:16:16.459Z,41.10
2022-11-30T17:19:04.092Z,41.73
2022-11-30T17:21:51.116Z,39.50
2022-11-30T17:24:38.060Z,38.60
2022-11-30T17:27:25.032Z,38.53
2022-11-30T17:30:14.223Z,40.17
2022-11-30T17:33:01.257Z,42.73
2022-11-30T17:35:48.427Z,45.37
2022-11-30T17:38:36.481Z,39.20
2022-11-30T17:41:24.012Z,41.70
2022-11-30T17:44:11.247Z,40.47
2022-11-30T17:46:58.240Z,39.17
2022-11-30T17:49:45.188Z,41.80
2022-11-30T17:52:32.253Z,38.20
2022-11-30T17:55:19.481Z,42.60
2022-11-30T17:58:06.652Z,39.13
2022-11-30T18:00:53.659Z,38.27
2022-11-30T18:03:40.750Z,45.67
2022-11-30T18:06:28.459Z,44.13
2022-11-30T18:09:16.243Z,41.77
2022-11-30T18:12:03.501Z,43.57
2022-11-30T18:14:51.249Z,45.87
2022-11-30T18:17:38.831Z,43.13
2022-11-30T18:20:25.866Z,41.70
2022-11-30T18:23:13.052Z,41.57
2022-11-30T18:26:00.173Z,42.03
2022-11-30T18:28:52.455Z,41.73
2022-11-30T18:31:39.412Z,42.07
2022-11-30T18:34:26.383Z,39.97
2022-11-30T18:37:13.577Z,40.87
2022-11-30T18:40:01.123Z,44.43
2022-11-30T18:42:48.624Z,39.27
2022-11-30T18:45:36.488Z,40.73
2022-11-30T18:48:23.529Z,42.17
2022-11-30T18:51:13.022Z,44.33
2022-11-30T18:54:06.324Z,43.67
2022-11-30T18:56:53.224Z,39.73
2022-11-30T18:59:40.725Z,40.40
2022-11-30T19:02:27.736Z,41.47
2022-11-30T19:05:35.428Z,46.07
2022-11-30T19:08:22.582Z,40.90
2022-11-30T19:11:11.001Z,38.47
2022-11-30T19:13:59.424Z,35.73
2022-11-30T19:16:47.308Z,30.17
2022-11-30T19:19:34.696Z,30.53
2022-11-30T19:22:21.669Z,31.33
2022-11-30T19:25:09.180Z,31.43
2022-11-30T19:27:56.280Z,30.20
2022-11-30T19:30:43.377Z,28.80
2022-11-30T19:33:30.336Z,30.63
2022-11-30T19:36:25.964Z,27.97
2022-11-30T19:39:12.988Z,27.63
2022-11-30T19:42:00.009Z,26.27
2022-11-30T19:44:47.209Z,27.30
2022-11-30T19:47:36.465Z,26.47
2022-11-30T19:50:24.434Z,25.37
2022-11-30T19:53:11.447Z,24.37
2022-11-30T19:55:58.416Z,24.20
2022-11-30T19:58:46.300Z,24.67
2022-11-30T20:01:34.511Z,23.10
2022-11-30T20:04:22.025Z,24.00
2022-11-30T20:07:08.951Z,24.77
2022-11-30T20:09:55.929Z,22.73
2022-11-30T20:12:43.036Z,23.67
2022-11-30T20:15:30.733Z,23.07
2022-11-30T20:18:17.713Z,22.87
2022-11-30T20:21:16.343Z,24.10
2022-11-30T20:24:06.687Z,23.83
2022-11-30T20:26:53.696Z,23.87
2022-11-30T20:29:43.494Z,24.30
2022-11-30T20:32:30.544Z,23.37
2022-11-30T20:35:17.826Z,24.53
2022-11-30T20:38:04.835Z,25.43
2022-11-30T20:40:51.989Z,24.80
2022-11-30T20:43:39.424Z,25.63
2022-11-30T20:46:32.127Z,25.73
2022-11-30T20:49:21.780Z,25.07
2022-11-30T20:52:09.293Z,26.60
2022-11-30T20:54:57.200Z,26.87
2022-11-30T20:57:45.214Z,30.37
2022-11-30T21:00:32.557Z,30.20
2022-11-30T21:03:19.504Z,28.13
2022-11-30T21:06:06.708Z,29.27
2022-11-30T21:08:53.757Z,32.43
2022-11-30T21:11:41.720Z,28.97
2022-11-30T21:14:28.986Z,29.20
2022-11-30T21:17:15.905Z,30.63
2022-11-30T21:20:02.945Z,30.17
2022-11-30T21:22:51.288Z,30.07
2022-11-30T21:25:38.362Z,28.60
2022-11-30T21:28:25.478Z,28.03
2022-11-30T21:31:13.085Z,31.47
2022-11-30T21:34:00.592Z,29.67
2022-11-30T21:36:48.952Z,29.20
2022-11-30T21:39:36.464Z,29.70
2022-11-30T21:42:24.324Z,27.30
2022-11-30T21:45:14.745Z,27.47
2022-11-30T21:48:02.126Z,27.00
2022-11-30T21:50:49.270Z,28.10
2022-11-30T21:53:51.143Z,28.77
2022-11-30T21:56:40.296Z,26.97
2022-11-30T21:59:27.649Z,28.47
2022-11-30T22:02:15.079Z,25.07
2022-11-30T22:05:02.136Z,27.63
2022-11-30T22:07:49.129Z,26.17
2022-11-30T22:10:37.656Z,28.03
2022-11-30T22:13:25.385Z,26.90
2022-11-30T22:16:15.844Z,26.07
2022-11-30T22:19:05.729Z,26.67
2022-11-30T22:21:54.596Z,26.73
2022-11-30T22:24:42.902Z,27.33
2022-11-30T22:27:30.392Z,27.83
2022-11-30T22:30:18.553Z,27.37
2022-11-30T22:33:06.413Z,29.07
2022-11-30T22:35:54.661Z,27.73
2022-11-30T22:38:42.792Z,29.70
2022-11-30T22:41:31.544Z,31.80
2022-11-30T22:44:19.030Z,29.60
2022-11-30T22:47:06.393Z,31.70
2022-11-30T22:49:53.429Z,30.30
2022-11-30T22:53:02.027Z,31.43
2022-11-30T22:55:48.422Z,31.93
2022-11-30T22:58:35.604Z,29.90
2022-11-30T23:01:25.272Z,33.93
2022-11-30T23:04:15.433Z,32.30
2022-11-30T23:07:02.486Z,33.63
2022-11-30T23:09:49.665Z,33.63
2022-11-30T23:12:58.371Z,36.20
2022-11-30T23:15:43.806Z,35.40
2022-11-30T23:18:33.176Z,33.43
2022-11-30T23:21:26.645Z,36.30
2022-11-30T23:24:17.040Z,36.13
2022-11-30T23:27:04.121Z,35.67
2022-11-30T23:29:51.104Z,36.30
2022-11-30T23:32:38.023Z,35.80
2022-11-30T23:35:25.350Z,36.73
2022-11-30T23:38:12.582Z,36.60
2022-11-30T23:41:11.341Z,34.93
2022-11-30T23:43:58.397Z,37.20
2022-11-30T23:46:45.475Z,35.70
2022-11-30T23:49:32.661Z,35.93
2022-11-30T23:52:19.629Z,37.70
2022-11-30T23:55:07.411Z,35.10
2022-11-30T23:57:54.416Z,34.23
